createdAt,value
2022-09-21T00:01:29.111Z,3.42
2022-09-21T00:04:23.662Z,4.85
2022-09-21T00:07:18.517Z,4.30
2022-09-21T00:10:13.032Z,1.95
2022-09-21T00:13:10.172Z,3.15
2022-09-21T00:16:08.451Z,3.85
2022-09-21T00:19:03.974Z,8.43
2022-09-21T00:21:58.733Z,4.60
2022-09-21T00:24:53.175Z,3.80
2022-09-21T00:27:49.943Z,3.83
2022-09-21T00:30:44.474Z,3.10
2022-09-21T00:33:38.957Z,3.33
2022-09-21T00:36:33.529Z,2.67
2022-09-21T00:39:28.011Z,2.92
2022-09-21T00:42:28.492Z,5.05
2022-09-21T00:45:23.003Z,1.70
2022-09-21T00:48:17.625Z,2.90
2022-09-21T00:51:12.373Z,2.28
2022-09-21T00:54:16.469Z,2.20
2022-09-21T00:57:11.109Z,3.08
2022-09-21T01:00:10.556Z,2.92
2022-09-21T01:03:05.797Z,1.50
2022-09-21T01:06:00.383Z,2.40
2022-09-21T01:09:00.284Z,0.88
2022-09-21T01:12:18.163Z,0.80
2022-09-21T01:15:33.840Z,1.27
2022-09-21T01:18:57.433Z,1.40
2022-09-21T01:22:20.636Z,1.67
2022-09-21T01:25:34.323Z,2.00
2022-09-21T01:28:46.939Z,1.67
2022-09-21T01:31:48.373Z,1.52
2022-09-21T01:35:05.110Z,6.93
2022-09-21T01:38:25.061Z,11.20
2022-09-21T01:41:24.807Z,9.73
2022-09-21T01:44:24.442Z,13.07
2022-09-21T01:47:20.750Z,9.93
2022-09-21T01:50:16.467Z,12.17
2022-09-21T01:53:34.001Z,10.90
2022-09-21T01:56:43.886Z,15.10
2022-09-21T02:00:00.242Z,13.95
2022-09-21T02:03:11.261Z,13.57
2022-09-21T02:06:08.790Z,16.08
2022-09-21T02:09:03.299Z,11.93
2022-09-21T02:11:59.539Z,11.40
2022-09-21T02:14:57.060Z,15.38
2022-09-21T02:18:09.896Z,10.60
2022-09-21T02:21:10.439Z,11.98
2022-09-21T02:24:07.833Z,10.82
2022-09-21T02:27:06.586Z,11.07
2022-09-21T02:30:02.773Z,13.40
2022-09-21T02:33:20.555Z,12.35
2022-09-21T02:36:24.003Z,7.40
2022-09-21T02:39:39.635Z,12.43
2022-09-21T02:42:39.481Z,13.45
2022-09-21T02:45:43.882Z,16.17
2022-09-21T02:48:50.985Z,12.82
2022-09-21T02:51:53.667Z,15.77
2022-09-21T02:54:52.403Z,12.68
2022-09-21T02:57:49.702Z,15.00
2022-09-21T03:00:46.834Z,19.85
2022-09-21T03:03:41.462Z,13.07
2022-09-21T03:06:36.058Z,17.77
2022-09-21T03:09:30.536Z,15.63
2022-09-21T03:12:25.337Z,14.27
2022-09-21T03:15:19.982Z,14.18
2022-09-21T03:18:16.282Z,15.02
2022-09-21T03:21:10.809Z,9.68
2022-09-21T03:24:05.555Z,17.27
2022-09-21T03:27:00.164Z,18.17
2022-09-21T03:29:56.780Z,13.75
2022-09-21T03:32:55.010Z,14.27
2022-09-21T03:35:50.827Z,16.08
2022-09-21T03:38:45.872Z,10.77
2022-09-21T03:41:40.458Z,14.63
2022-09-21T03:44:35.046Z,13.35
2022-09-21T03:47:30.503Z,13.98
2022-09-21T03:50:26.378Z,14.27
2022-09-21T03:53:20.965Z,12.70
2022-09-21T03:56:15.494Z,14.27
2022-09-21T03:59:13.879Z,12.05
2022-09-21T04:02:09.003Z,9.70
2022-09-21T04:05:03.672Z,10.95
2022-09-21T04:07:58.795Z,12.70
2022-09-21T04:10:53.365Z,16.23
2022-09-21T04:13:54.654Z,10.77
2022-09-21T04:16:49.203Z,9.00
2022-09-21T04:19:43.707Z,10.13
2022-09-21T04:22:43.135Z,8.25
2022-09-21T04:25:38.417Z,15.45
2022-09-21T04:28:34.141Z,13.77
2022-09-21T04:31:31.011Z,11.75
2022-09-21T04:34:25.591Z,12.13
2022-09-21T04:37:20.478Z,11.20
2022-09-21T04:40:15.130Z,12.43
2022-09-21T04:43:09.837Z,9.68
2022-09-21T04:46:12.290Z,12.32
2022-09-21T04:49:07.101Z,12.82
2022-09-21T04:52:01.758Z,9.32
2022-09-21T04:54:56.369Z,10.57
2022-09-21T04:57:50.825Z,9.30
2022-09-21T05:00:45.403Z,16.98
2022-09-21T05:03:39.977Z,8.93
2022-09-21T05:06:35.778Z,8.73
2022-09-21T05:09:48.513Z,11.95
2022-09-21T05:12:44.642Z,9.25
2022-09-21T05:15:42.204Z,12.13
2022-09-21T05:18:37.181Z,7.30
2022-09-21T05:21:35.010Z,13.27
2022-09-21T05:24:29.694Z,8.82
2022-09-21T05:27:24.562Z,13.77
2022-09-21T05:30:20.669Z,8.02
2022-09-21T05:33:21.717Z,6.18
2022-09-21T05:36:44.489Z,11.20
2022-09-21T05:39:39.363Z,11.15
2022-09-21T05:42:34.641Z,9.15
2022-09-21T05:45:30.295Z,12.13
2022-09-21T05:48:42.049Z,11.88
2022-09-21T05:52:20.888Z,5.78
2022-09-21T05:55:31.357Z,5.30
2022-09-21T05:58:51.413Z,11.80
2022-09-21T06:02:01.051Z,9.45
2022-09-21T06:04:58.087Z,8.48
2022-09-21T06:07:52.785Z,9.75
2022-09-21T06:10:47.437Z,7.75
2022-09-21T06:13:42.956Z,10.93
2022-09-21T06:16:44.725Z,6.18
2022-09-21T06:19:39.363Z,8.05
2022-09-21T06:22:33.820Z,11.55
2022-09-21T06:25:28.391Z,6.35
2022-09-21T06:28:23.131Z,9.30
2022-09-21T06:31:18.075Z,6.07
2022-09-21T06:34:13.584Z,9.85
2022-09-21T06:37:08.165Z,8.50
2022-09-21T06:40:02.687Z,8.85
2022-09-21T06:43:01.538Z,7.50
2022-09-21T06:45:58.149Z,9.65
2022-09-21T06:48:52.903Z,6.90
2022-09-21T06:51:48.955Z,5.85
2022-09-21T06:54:43.722Z,4.57
2022-09-21T06:57:41.520Z,4.85
2022-09-21T07:00:36.058Z,4.18
2022-09-21T07:03:30.502Z,6.50
2022-09-21T07:06:25.099Z,6.93
2022-09-21T07:12:35.945Z,10.48
2022-09-21T07:15:31.281Z,8.55
2022-09-21T07:18:26.035Z,3.80
2022-09-21T07:21:20.576Z,4.95
2022-09-21T07:24:16.369Z,3.95
2022-09-21T07:27:10.793Z,5.43
2022-09-21T07:30:06.449Z,6.90
2022-09-21T07:33:01.200Z,7.60
2022-09-21T07:35:59.234Z,7.30
2022-09-21T07:38:55.246Z,6.43
2022-09-21T07:41:49.950Z,7.50
2022-09-21T07:44:44.472Z,7.18
2022-09-21T07:47:39.144Z,6.68
2022-09-21T07:50:37.697Z,7.43
2022-09-21T07:53:33.390Z,6.95
2022-09-21T07:56:28.368Z,6.15
2022-09-21T07:59:22.997Z,7.55
2022-09-21T08:02:17.526Z,4.63
2022-09-21T08:05:12.038Z,10.38
2022-09-21T08:08:06.637Z,8.05
2022-09-21T08:11:10.686Z,5.70
2022-09-21T08:14:06.000Z,4.43
2022-09-21T08:17:00.652Z,10.80
2022-09-21T08:19:56.066Z,6.53
2022-09-21T08:22:50.519Z,6.88
2022-09-21T08:25:45.855Z,10.32
2022-09-21T08:28:41.600Z,6.22
2022-09-21T08:31:36.119Z,10.65
2022-09-21T08:34:30.758Z,6.00
2022-09-21T08:37:25.779Z,6.18
2022-09-21T08:40:21.682Z,6.35
2022-09-21T08:43:30.579Z,9.15
2022-09-21T08:46:29.371Z,8.48
2022-09-21T08:49:28.024Z,9.07
2022-09-21T08:52:23.709Z,7.35
2022-09-21T08:55:25.542Z,5.63
2022-09-21T08:58:32.416Z,7.47
2022-09-21T09:01:35.926Z,8.13
2022-09-21T09:04:38.130Z,5.85
2022-09-21T09:07:44.375Z,7.10
2022-09-21T09:11:04.545Z,11.05
2022-09-21T09:14:16.215Z,6.95
2022-09-21T09:17:25.851Z,7.32
2022-09-21T09:20:22.668Z,8.40
2022-09-21T09:23:45.523Z,6.25
2022-09-21T09:26:51.932Z,7.82
2022-09-21T09:30:02.885Z,6.93
2022-09-21T09:33:08.194Z,5.60
2022-09-21T09:36:08.485Z,5.80
2022-09-21T09:39:17.817Z,6.40
2022-09-21T09:42:36.681Z,8.10
2022-09-21T09:45:46.147Z,10.13
2022-09-21T09:48:54.345Z,10.57
2022-09-21T09:51:49.984Z,9.45
2022-09-21T09:54:45.198Z,7.55
2022-09-21T09:57:40.128Z,7.05
2022-09-21T10:00:34.675Z,6.60
2022-09-21T10:03:30.389Z,7.65
2022-09-21T10:06:34.730Z,6.65
2022-09-21T10:09:36.847Z,8.98
2022-09-21T10:12:33.577Z,8.65
2022-09-21T10:15:28.215Z,9.23
2022-09-21T10:18:27.642Z,8.10
2022-09-21T10:21:28.934Z,8.27
2022-09-21T10:24:26.839Z,6.00
2022-09-21T10:27:29.296Z,9.13
2022-09-21T10:30:34.728Z,6.53
2022-09-21T10:33:29.154Z,6.82
2022-09-21T10:36:41.649Z,7.20
2022-09-21T10:39:36.920Z,9.25
2022-09-21T10:42:39.281Z,7.15
2022-09-21T10:45:38.378Z,11.63
2022-09-21T10:48:33.354Z,7.45
2022-09-21T10:51:35.191Z,6.32
2022-09-21T10:54:35.209Z,6.82
2022-09-21T10:57:30.965Z,9.35
2022-09-21T11:00:30.686Z,7.47
2022-09-21T11:03:51.123Z,10.20
2022-09-21T11:07:04.181Z,8.57
2022-09-21T11:10:19.911Z,6.05
2022-09-21T11:13:31.665Z,7.32
2022-09-21T11:16:39.551Z,7.13
2022-09-21T11:19:55.818Z,4.82
2022-09-21T11:23:08.225Z,5.68
2022-09-21T11:26:20.086Z,3.80
2022-09-21T11:29:21.657Z,8.70
2022-09-21T11:32:35.912Z,5.18
2022-09-21T11:35:30.301Z,4.65
2022-09-21T11:38:43.388Z,3.78
2022-09-21T11:42:00.478Z,4.55
2022-09-21T11:45:06.183Z,8.57
2022-09-21T11:48:16.356Z,4.40
2022-09-21T11:51:29.729Z,4.85
2022-09-21T11:54:25.384Z,5.65
2022-09-21T11:57:41.627Z,6.57
2022-09-21T12:00:59.962Z,4.35
2022-09-21T12:04:15.986Z,6.35
2022-09-21T12:07:47.884Z,6.30
2022-09-21T12:10:49.559Z,10.40
2022-09-21T12:14:21.238Z,13.82
2022-09-21T12:17:52.652Z,10.93
2022-09-21T12:21:02.473Z,8.40
2022-09-21T12:24:05.260Z,10.27
2022-09-21T12:27:04.784Z,7.65
2022-09-21T12:30:22.306Z,8.07
2022-09-21T12:33:35.914Z,5.50
2022-09-21T12:36:44.539Z,4.97
2022-09-21T12:40:00.704Z,4.80
2022-09-21T12:43:03.083Z,5.22
2022-09-21T12:46:05.192Z,5.75
2022-09-21T12:49:03.610Z,4.53
2022-09-21T12:52:04.869Z,6.78
2022-09-21T12:55:30.744Z,3.67
2022-09-21T12:58:51.957Z,3.88
2022-09-21T13:01:57.384Z,7.13
2022-09-21T13:04:53.966Z,6.20
2022-09-21T13:08:14.793Z,7.93
2022-09-21T13:11:10.156Z,3.17
2022-09-21T13:14:06.768Z,3.13
2022-09-21T13:17:04.895Z,3.50
2022-09-21T13:20:08.124Z,3.88
2022-09-21T13:23:04.032Z,4.75
2022-09-21T13:26:10.374Z,4.32
2022-09-21T13:29:29.153Z,6.07
2022-09-21T13:32:25.774Z,5.25
2022-09-21T13:35:54.233Z,4.63
2022-09-21T13:38:49.218Z,4.22
2022-09-21T13:44:59.469Z,5.10
2022-09-21T13:48:01.500Z,4.60
2022-09-21T13:50:59.836Z,6.43
2022-09-21T13:54:01.292Z,5.80
2022-09-21T13:57:19.191Z,3.45
2022-09-21T14:00:14.209Z,4.65
2022-09-21T14:03:32.213Z,4.57
2022-09-21T14:06:35.793Z,4.70
2022-09-21T14:09:42.209Z,4.45
2022-09-21T14:12:45.868Z,5.47
2022-09-21T14:15:41.847Z,4.53
2022-09-21T14:18:40.393Z,4.43
2022-09-21T14:21:34.836Z,6.72
2022-09-21T14:24:54.034Z,6.15
2022-09-21T14:27:51.899Z,6.68
2022-09-21T14:31:02.059Z,7.15
2022-09-21T14:34:03.004Z,4.07
2022-09-21T14:37:01.046Z,5.30
2022-09-21T14:39:56.100Z,4.22
2022-09-21T14:42:52.319Z,7.50
2022-09-21T14:46:03.043Z,5.25
2022-09-21T14:49:31.282Z,6.72
2022-09-21T14:52:48.462Z,5.82
2022-09-21T14:56:04.615Z,7.22
2022-09-21T14:59:37.078Z,5.57
2022-09-21T15:02:36.993Z,5.75
2022-09-21T15:05:31.440Z,5.30
2022-09-21T15:09:13.524Z,8.00
2022-09-21T15:12:21.997Z,6.85
2022-09-21T15:15:32.632Z,5.95
2022-09-21T15:18:27.490Z,8.85
2022-09-21T15:21:34.168Z,6.45
2022-09-21T15:24:33.078Z,4.50
2022-09-21T15:27:35.053Z,5.78
2022-09-21T15:30:34.472Z,5.50
2022-09-21T15:33:28.939Z,4.05
2022-09-21T15:36:32.365Z,6.10
2022-09-21T15:39:32.882Z,7.57
2022-09-21T15:42:27.598Z,6.35
2022-09-21T15:45:22.083Z,4.43
2022-09-21T15:48:16.548Z,7.95
2022-09-21T15:51:15.586Z,8.05
2022-09-21T15:54:25.277Z,4.43
2022-09-21T15:57:27.989Z,5.70
2022-09-21T16:00:26.004Z,7.75
2022-09-21T16:03:27.132Z,7.68
2022-09-21T16:06:28.895Z,6.78
2022-09-21T16:09:30.033Z,6.22
2022-09-21T16:12:46.380Z,5.45
2022-09-21T16:15:41.367Z,8.85
2022-09-21T16:18:50.506Z,9.80
2022-09-21T16:21:44.996Z,7.45
2022-09-21T16:24:47.807Z,5.47
2022-09-21T16:27:59.264Z,6.28
2022-09-21T16:30:56.439Z,7.25
2022-09-21T16:33:50.825Z,6.07
2022-09-21T16:36:46.890Z,6.72
2022-09-21T16:39:43.425Z,5.18
2022-09-21T16:42:37.883Z,7.07
2022-09-21T16:45:33.605Z,3.85
2022-09-21T16:48:28.216Z,5.80
2022-09-21T16:51:26.489Z,5.35
2022-09-21T16:54:26.549Z,4.97
2022-09-21T16:57:21.245Z,4.45
2022-09-21T17:00:21.488Z,5.00
2022-09-21T17:03:17.084Z,3.55
2022-09-21T17:06:23.151Z,4.57
2022-09-21T17:09:27.086Z,3.42
2022-09-21T17:12:25.225Z,2.25
2022-09-21T17:15:19.920Z,3.15
2022-09-21T17:18:15.325Z,3.35
2022-09-21T17:21:11.223Z,2.17
2022-09-21T17:24:06.877Z,2.33
2022-09-21T17:27:01.366Z,3.72
2022-09-21T17:29:56.561Z,2.30
2022-09-21T17:32:51.326Z,2.35
2022-09-21T17:35:45.954Z,3.28
2022-09-21T17:38:40.366Z,2.35
2022-09-21T17:41:59.646Z,2.38
2022-09-21T17:45:15.483Z,3.47
2022-09-21T17:48:20.318Z,3.28
2022-09-21T17:51:34.796Z,1.95
2022-09-21T17:54:29.551Z,2.60
2022-09-21T17:57:42.341Z,1.52
2022-09-21T18:00:46.832Z,3.47
2022-09-21T18:03:45.764Z,2.97
2022-09-21T18:06:40.561Z,2.55
2022-09-21T18:09:35.337Z,4.25
2022-09-21T18:12:58.721Z,4.45
2022-09-21T18:16:04.820Z,2.58
2022-09-21T18:19:11.378Z,3.72
2022-09-21T18:22:27.722Z,1.70
2022-09-21T18:25:37.064Z,2.30
2022-09-21T18:28:47.038Z,1.63
2022-09-21T18:32:04.612Z,3.63
2022-09-21T18:35:17.407Z,3.42
2022-09-21T18:39:07.007Z,2.22
2022-09-21T18:42:39.393Z,4.07
2022-09-21T18:45:49.820Z,2.58
2022-09-21T18:48:57.737Z,3.58
2022-09-21T18:52:15.040Z,2.30
2022-09-21T18:55:30.686Z,3.50
2022-09-21T18:58:25.392Z,5.00
2022-09-21T19:01:23.277Z,6.95
2022-09-21T19:04:21.449Z,2.47
2022-09-21T19:07:40.050Z,4.47
2022-09-21T19:11:09.557Z,4.78
2022-09-21T19:14:22.006Z,4.20
2022-09-21T19:17:40.942Z,2.85
2022-09-21T19:21:03.400Z,2.42
2022-09-21T19:24:25.167Z,4.75
2022-09-21T19:27:44.849Z,4.55
2022-09-21T19:30:40.719Z,3.13
2022-09-21T19:33:51.549Z,2.55
2022-09-21T19:36:50.864Z,3.60
2022-09-21T19:39:45.609Z,1.88
2022-09-21T19:43:01.462Z,3.38
2022-09-21T19:46:15.795Z,2.42
2022-09-21T19:49:22.284Z,2.03
2022-09-21T19:52:20.203Z,2.33
2022-09-21T19:55:41.338Z,2.88
2022-09-21T19:58:54.450Z,3.80
2022-09-21T20:02:01.428Z,1.70
2022-09-21T20:05:10.112Z,2.10
2022-09-21T20:08:15.954Z,2.83
2022-09-21T20:11:11.689Z,1.88
2022-09-21T20:14:20.679Z,4.43
2022-09-21T20:17:23.329Z,3.03
2022-09-21T20:20:28.401Z,1.73
2022-09-21T20:23:23.600Z,1.20
2022-09-21T20:26:27.054Z,1.90
2022-09-21T20:29:23.135Z,3.45
2022-09-21T20:32:17.661Z,1.80
2022-09-21T20:35:32.637Z,1.10
2022-09-21T20:38:27.137Z,0.88
2022-09-21T20:41:25.667Z,1.02
2022-09-21T20:44:20.105Z,1.00
2022-09-21T20:47:14.553Z,2.13
2022-09-21T20:50:13.254Z,1.85
2022-09-21T20:53:08.882Z,1.30
2022-09-21T20:56:03.831Z,1.00
2022-09-21T20:58:58.477Z,1.75
2022-09-21T21:01:53.535Z,0.95
2022-09-21T21:04:48.153Z,1.08
2022-09-21T21:07:45.929Z,1.45
2022-09-21T21:10:40.466Z,1.13
2022-09-21T21:13:35.784Z,1.52
2022-09-21T21:16:30.278Z,1.65
2022-09-21T21:19:25.436Z,2.25
2022-09-21T21:22:20.492Z,1.10
2022-09-21T21:25:14.989Z,1.90
2022-09-21T21:28:09.646Z,2.00
2022-09-21T21:31:04.082Z,1.35
2022-09-21T21:33:58.774Z,0.98
2022-09-21T21:36:53.352Z,0.52
2022-09-21T21:39:47.834Z,0.98
2022-09-21T21:42:42.365Z,0.50
2022-09-21T21:45:36.773Z,1.05
2022-09-21T21:48:31.412Z,1.48
2022-09-21T21:51:26.103Z,0.82
2022-09-21T21:54:24.774Z,1.90
2022-09-21T21:57:19.208Z,1.10
2022-09-21T22:00:14.457Z,0.95
2022-09-21T22:03:08.855Z,0.60
2022-09-21T22:06:04.070Z,0.63
2022-09-21T22:08:59.284Z,0.50
2022-09-21T22:11:53.774Z,0.77
2022-09-21T22:14:48.950Z,1.10
2022-09-21T22:17:43.400Z,1.20
2022-09-21T22:20:37.796Z,0.30
2022-09-21T22:23:32.580Z,0.22
2022-09-21T22:26:28.866Z,0.30
2022-09-21T22:29:23.374Z,0.20
2022-09-21T22:32:17.897Z,2.58
2022-09-21T22:35:12.704Z,0.20
2022-09-21T22:38:12.474Z,0.17
2022-09-21T22:41:12.155Z,0.10
2022-09-21T22:44:06.719Z,0.32
2022-09-21T22:47:01.162Z,0.28
2022-09-21T22:49:55.610Z,0.20
2022-09-21T22:52:50.084Z,0.17
2022-09-21T22:55:44.852Z,0.47
2022-09-21T22:58:45.546Z,0.10
2022-09-21T23:01:41.902Z,0.20
2022-09-21T23:04:36.446Z,0.00
2022-09-21T23:07:31.081Z,0.00
2022-09-21T23:10:28.043Z,0.10
2022-09-21T23:13:23.063Z,0.15
2022-09-21T23:16:18.564Z,0.10
2022-09-21T23:19:16.814Z,0.10
2022-09-21T23:22:11.529Z,0.22
2022-09-21T23:25:07.373Z,0.17
2022-09-21T23:28:02.058Z,0.13
2022-09-21T23:30:59.492Z,1.17
2022-09-21T23:33:55.639Z,0.25
2022-09-21T23:36:50.247Z,0.22
2022-09-21T23:39:44.749Z,0.43
2022-09-21T23:42:39.301Z,0.20
2022-09-21T23:45:33.714Z,0.20
2022-09-21T23:48:28.741Z,0.70
2022-09-21T23:51:24.044Z,0.00
2022-09-21T23:54:20.794Z,0.10
2022-09-21T23:57:15.358Z,0.10
